Time,TemperatureF,DewpointF,PressureIn,WindDirection,WindDirectionDegrees,WindSpeedMPH,WindSpeedGustMPH,Humidity,HourlyPrecipIn,Conditions,Clouds,dailyrainin,SoftwareType,DateUTC
2013-01-10 00:07:00,39.9,28.0,30.07,SSW,206,0.0,-999.0,63,-99.99,,,0.00,weatherlink.com 1.10,2013-01-10 05:07:00,
2013-01-10 00:22:00,39.2,29.0,30.07,North,360,2.0,-999.0,66,-99.99,,,0.00,weatherlink.com 1.10,2013-01-10 05:22:00,
2013-01-10 00:52:00,39.7,29.0,30.09,WNW,297,2.0,-999.0,65,-99.99,,,0.00,weatherlink.com 1.10,2013-01-10 05:52:00,
2013-01-10 01:07:00,39.7,28.0,30.09,NNE,19,2.0,-999.0,64,-99.99,,,0.00,weatherlink.com 1.10,2013-01-10 06:07:00,
2013-01-10 01:22:00,39.4,29.0,30.10,SW,225,1.0,-999.0,66,-99.99,,,0.00,weatherlink.com 1.10,2013-01-10 06:22:00,
2013-01-10 01:37:00,39.9,30.0,30.11,WNW,295,1.0,-999.0,68,-99.99,,,0.00,weatherlink.com 1.10,2013-01-10 06:37:00,
2013-01-10 01:52:00,39.5,30.0,30.11,NW,325,3.0,-999.0,68,-99.99,,,0.00,weatherlink.com 1.10,2013-01-10 06:52:00,
2013-01-10 02:07:00,38.6,29.0,30.13,WNW,300,1.0,-999.0,68,-99.99,,,0.00,weatherlink.com 1.10,2013-01-10 07:07:00,
2013-01-10 02:23:00,37.7,29.0,30.14,WNW,294,0.0,-999.0,71,-99.99,,,0.00,weatherlink.com 1.10,2013-01-10 07:23:00,
2013-01-10 02:38:00,37.5,29.0,30.15,NNW,340,2.0,-999.0,70,-99.99,,,0.01,weatherlink.com 1.10,2013-01-10 07:38:00,
2013-01-10 02:53:00,38.2,29.0,30.15,West,261,0.0,-999.0,69,-99.99,,,0.01,weatherlink.com 1.10,2013-01-10 07:53:00,
2013-01-10 03:08:00,38.0,28.0,30.15,WNW,286,4.0,-999.0,68,-99.99,,,0.01,weatherlink.com 1.10,2013-01-10 08:08:00,
2013-01-10 03:23:00,38.0,29.0,30.17,NW,319,1.0,-999.0,70,-99.99,,,0.01,weatherlink.com 1.10,2013-01-10 08:23:00,
2013-01-10 03:38:00,38.0,28.0,30.18,West,279,0.0,-999.0,68,-99.99,,,0.01,weatherlink.com 1.10,2013-01-10 08:38:00,
2013-01-10 03:53:00,37.1,28.0,30.20,WSW,257,1.0,-999.0,71,-99.99,,,0.01,weatherlink.com 1.10,2013-01-10 08:53:00,
2013-01-10 04:08:00,37.0,28.0,30.21,North,360,0.0,-999.0,69,-99.99,,,0.01,weatherlink.com 1.10,2013-01-10 09:08:00,
2013-01-10 04:23:00,36.9,28.0,30.21,WSW,240,0.0,-999.0,69,-99.99,,,0.01,weatherlink.com 1.10,2013-01-10 09:23:00,
2013-01-10 04:38:00,36.3,27.0,30.23,SSE,150,4.0,-999.0,69,-99.99,,,0.01,weatherlink.com 1.10,2013-01-10 09:38:00,
2013-01-10 04:53:00,37.3,26.0,30.23,NW,321,1.0,-999.0,64,-99.99,,,0.01,weatherlink.com 1.10,2013-01-10 09:53:00,
2013-01-10 05:08:00,36.6,27.0,30.24,NNW,327,0.0,-999.0,67,-99.99,,,0.01,weatherlink.com 1.10,2013-01-10 10:08:00,
2013-01-10 05:23:00,36.0,26.0,30.25,ENE,76,0.0,-999.0,67,-99.99,,,0.01,weatherlink.com 1.10,2013-01-10 10:23:00,
2013-01-10 05:38:00,35.3,26.0,30.27,NW,322,1.0,-999.0,68,-99.99,,,0.01,weatherlink.com 1.10,2013-01-10 10:38:00,
2013-01-10 05:53:00,34.8,26.0,30.29,West,280,0.0,-999.0,69,-99.99,,,0.01,weatherlink.com 1.10,2013-01-10 10:53:00,
2013-01-10 06:08:00,34.4,25.0,30.29,WNW,286,0.0,-999.0,68,-99.99,,,0.01,weatherlink.com 1.10,2013-01-10 11:08:00,
2013-01-10 06:23:00,34.4,26.0,30.30,WNW,292,0.0,-999.0,70,-99.99,,,0.01,weatherlink.com 1.10,2013-01-10 11:23:00,
2013-01-10 06:38:00,34.2,26.0,30.31,NNW,338,0.0,-999.0,72,-99.99,,,0.01,weatherlink.com 1.10,2013-01-10 11:38:00,
2013-01-10 06:53:00,33.5,25.0,30.32,NNW,330,0.0,-999.0,72,-99.99,,,0.01,weatherlink.com 1.10,2013-01-10 11:53:00,
2013-01-10 07:08:00,32.9,25.0,30.33,NNE,28,0.0,-999.0,74,-99.99,,,0.01,weatherlink.com 1.10,2013-01-10 12:08:00,
2013-01-10 07:23:00,33.4,26.0,30.33,NW,304,0.0,-999.0,74,-99.99,,,0.01,weatherlink.com 1.10,2013-01-10 12:23:00,
2013-01-10 07:38:00,34.2,26.0,30.34,WNW,290,1.0,-999.0,72,-99.99,,,0.01,weatherlink.com 1.10,2013-01-10 12:38:00,
2013-01-10 07:53:00,34.4,26.0,30.34,WNW,286,0.0,-999.0,71,-99.99,,,0.01,weatherlink.com 1.10,2013-01-10 12:53:00,
2013-01-10 08:08:00,35.0,26.0,30.36,NNW,331,0.0,-999.0,71,-99.99,,,0.01,weatherlink.com 1.10,2013-01-10 13:08:00,
2013-01-10 08:23:00,35.1,27.0,30.36,WSW,254,4.0,-999.0,71,-99.99,,,0.01,weatherlink.com 1.10,2013-01-10 13:23:00,
2013-01-10 08:38:00,36.0,26.0,30.38,West,267,2.0,-999.0,67,-99.99,,,0.01,weatherlink.com 1.10,2013-01-10 13:38:00,
2013-01-10 08:53:00,37.1,26.0,30.38,NW,315,3.0,-999.0,64,-99.99,,,0.01,weatherlink.com 1.10,2013-01-10 13:53:00,
2013-01-10 09:08:00,37.9,27.0,30.39,ESE,119,3.0,-999.0,66,-99.99,,,0.01,weatherlink.com 1.10,2013-01-10 14:08:00,
2013-01-10 09:24:00,38.8,26.0,30.37,WNW,298,3.0,-999.0,61,-99.99,,,0.01,weatherlink.com 1.10,2013-01-10 14:24:00,
2013-01-10 09:39:00,39.5,26.0,30.38,South,187,1.0,-999.0,59,-99.99,,,0.01,weatherlink.com 1.10,2013-01-10 14:39:00,
2013-01-10 09:54:00,40.1,27.0,30.39,ENE,72,0.0,-999.0,59,-99.99,,,0.01,weatherlink.com 1.10,2013-01-10 14:54:00,
2013-01-10 10:09:00,40.2,27.0,30.39,NW,319,1.0,-999.0,59,-99.99,,,0.01,weatherlink.com 1.10,2013-01-10 15:09:00,
2013-01-10 10:24:00,40.6,27.0,30.39,North,355,2.0,-999.0,58,-99.99,,,0.01,weatherlink.com 1.10,2013-01-10 15:24:00,
2013-01-10 10:39:00,41.1,27.0,30.39,WSW,240,1.0,-999.0,57,-99.99,,,0.01,weatherlink.com 1.10,2013-01-10 15:39:00,
2013-01-10 10:54:00,41.6,27.0,30.38,West,273,2.0,-999.0,56,-99.99,,,0.01,weatherlink.com 1.10,2013-01-10 15:54:00,
2013-01-10 11:09:00,42.0,26.0,30.39,West,281,1.0,-999.0,53,-99.99,,,0.01,weatherlink.com 1.10,2013-01-10 16:09:00,
2013-01-10 11:24:00,41.9,28.0,30.39,NW,321,2.0,-999.0,58,-99.99,,,0.01,weatherlink.com 1.10,2013-01-10 16:24:00,
2013-01-10 11:39:00,41.9,25.0,30.38,SW,232,3.0,-999.0,52,-99.99,,,0.01,weatherlink.com 1.10,2013-01-10 16:39:00,
2013-01-10 11:54:00,41.7,26.0,30.37,WSW,258,3.0,-999.0,55,-99.99,,,0.01,weatherlink.com 1.10,2013-01-10 16:54:00,
2013-01-10 12:09:00,42.0,28.0,30.37,West,267,2.0,-999.0,57,-99.99,,,0.01,weatherlink.com 1.10,2013-01-10 17:09:00,
2013-01-10 12:24:00,42.4,28.0,30.37,NW,314,0.0,-999.0,57,-99.99,,,0.01,weatherlink.com 1.10,2013-01-10 17:24:00,
2013-01-10 12:39:00,42.5,26.0,30.38,SW,218,1.0,-999.0,53,-99.99,,,0.01,weatherlink.com 1.10,2013-01-10 17:39:00,
2013-01-10 12:54:00,42.7,27.0,30.38,SW,214,0.0,-999.0,54,-99.99,,,0.01,weatherlink.com 1.10,2013-01-10 17:54:00,
2013-01-10 13:09:00,42.4,27.0,30.39,NW,305,1.0,-999.0,55,-99.99,,,0.01,weatherlink.com 1.10,2013-01-10 18:09:00,
2013-01-10 13:24:00,41.6,26.0,30.40,WNW,302,0.0,-999.0,55,-99.99,,,0.01,weatherlink.com 1.10,2013-01-10 18:24:00,
2013-01-10 13:39:00,41.3,26.0,30.40,WNW,290,1.0,-999.0,55,-99.99,,,0.01,weatherlink.com 1.10,2013-01-10 18:39:00,
2013-01-10 13:54:00,40.7,26.0,30.41,WNW,299,2.0,-999.0,57,-99.99,,,0.01,weatherlink.com 1.10,2013-01-10 18:54:00,
2013-01-10 14:09:00,40.8,27.0,30.42,WNW,302,1.0,-999.0,58,-99.99,,,0.01,weatherlink.com 1.10,2013-01-10 19:09:00,
2013-01-10 14:24:00,40.5,26.0,30.43,WSW,250,2.0,-999.0,57,-99.99,,,0.01,weatherlink.com 1.10,2013-01-10 19:24:00,
2013-01-10 14:39:00,40.2,26.0,30.42,NW,309,0.0,-999.0,58,-99.99,,,0.01,weatherlink.com 1.10,2013-01-10 19:39:00,
2013-01-10 14:54:00,40.2,27.0,30.43,North,10,1.0,-999.0,59,-99.99,,,0.01,weatherlink.com 1.10,2013-01-10 19:54:00,
2013-01-10 15:09:00,40.2,26.0,30.44,NW,309,1.0,-999.0,57,-99.99,,,0.01,weatherlink.com 1.10,2013-01-10 20:09:00,
2013-01-10 15:24:00,39.3,26.0,30.45,NNE,20,0.0,-999.0,59,-99.99,,,0.01,weatherlink.com 1.10,2013-01-10 20:24:00,
2013-01-10 15:40:00,38.4,26.0,30.45,NW,319,0.0,-999.0,62,-99.99,,,0.01,weatherlink.com 1.10,2013-01-10 20:40:00,
2013-01-10 15:54:00,38.4,27.0,30.45,North,5,0.0,-999.0,63,-99.99,,,0.01,weatherlink.com 1.10,2013-01-10 20:54:00,
2013-01-10 16:09:00,37.6,26.0,30.47,West,273,0.0,-999.0,63,-99.99,,,0.01,weatherlink.com 1.10,2013-01-10 21:09:00,
2013-01-10 16:24:00,36.8,26.0,30.47,West,273,0.0,-999.0,66,-99.99,,,0.01,weatherlink.com 1.10,2013-01-10 21:24:00,
2013-01-10 16:39:00,35.8,26.0,30.48,SE,140,0.0,-999.0,67,-99.99,,,0.01,weatherlink.com 1.10,2013-01-10 21:39:00,
2013-01-10 16:54:00,35.9,26.0,30.50,NW,326,0.0,-999.0,68,-99.99,,,0.01,weatherlink.com 1.10,2013-01-10 21:54:00,
2013-01-10 17:09:00,35.7,26.0,30.49,NW,316,0.0,-999.0,69,-99.99,,,0.01,weatherlink.com 1.10,2013-01-10 22:09:00,
2013-01-10 17:24:00,35.4,26.0,30.50,SW,225,0.0,-999.0,69,-99.99,,,0.01,weatherlink.com 1.10,2013-01-10 22:24:00,
2013-01-10 17:39:00,35.3,27.0,30.50,NNW,331,0.0,-999.0,71,-99.99,,,0.01,weatherlink.com 1.10,2013-01-10 22:39:00,
2013-01-10 17:54:00,34.6,25.0,30.51,NNW,328,0.0,-999.0,69,-99.99,,,0.01,weatherlink.com 1.10,2013-01-10 22:54:00,
2013-01-10 18:09:00,34.1,26.0,30.50,NNW,328,0.0,-999.0,73,-99.99,,,0.01,weatherlink.com 1.10,2013-01-10 23:09:00,
2013-01-10 18:24:00,33.4,25.0,30.51,SSE,159,0.0,-999.0,71,-99.99,,,0.01,weatherlink.com 1.10,2013-01-10 23:24:00,
2013-01-10 18:39:00,32.9,26.0,30.51,SSE,159,0.0,-999.0,77,-99.99,,,0.01,weatherlink.com 1.10,2013-01-10 23:39:00,
2013-01-10 18:54:00,31.9,25.0,30.51,SSE,159,0.0,-999.0,75,-99.99,,,0.01,weatherlink.com 1.10,2013-01-10 23:54:00,
2013-01-10 19:09:00,31.4,26.0,30.51,SSE,159,0.0,-999.0,80,-99.99,,,0.01,weatherlink.com 1.10,2013-01-11 00:09:00,
2013-01-10 19:24:00,30.6,25.0,30.52,SSE,159,0.0,-999.0,80,-99.99,,,0.01,weatherlink.com 1.10,2013-01-11 00:24:00,
2013-01-10 19:40:00,30.1,25.0,30.54,SE,144,0.0,-999.0,81,-99.99,,,0.01,weatherlink.com 1.10,2013-01-11 00:40:00,
2013-01-10 19:55:00,30.5,25.0,30.54,SE,144,0.0,-999.0,81,-99.99,,,0.01,weatherlink.com 1.10,2013-01-11 00:55:00,
2013-01-10 20:10:00,29.9,24.0,30.54,SE,144,0.0,-999.0,80,-99.99,,,0.01,weatherlink.com 1.10,2013-01-11 01:10:00,
2013-01-10 20:25:00,29.9,25.0,30.54,SE,144,0.0,-999.0,81,-99.99,,,0.01,weatherlink.com 1.10,2013-01-11 01:25:00,
2013-01-10 20:40:00,29.2,23.0,30.55,SE,144,0.0,-999.0,78,-99.99,,,0.01,weatherlink.com 1.10,2013-01-11 01:40:00,
2013-01-10 20:55:00,28.8,24.0,30.56,SE,143,0.0,-999.0,82,-99.99,,,0.01,weatherlink.com 1.10,2013-01-11 01:55:00,
2013-01-10 21:10:00,28.6,24.0,30.56,SE,144,0.0,-999.0,83,-99.99,,,0.01,weatherlink.com 1.10,2013-01-11 02:10:00,
2013-01-10 21:25:00,28.5,24.0,30.57,SE,143,0.0,-999.0,83,-99.99,,,0.01,weatherlink.com 1.10,2013-01-11 02:25:00,
2013-01-10 21:40:00,28.5,24.0,30.57,SE,143,0.0,-999.0,84,-99.99,,,0.01,weatherlink.com 1.10,2013-01-11 02:40:00,
2013-01-10 21:55:00,28.2,24.0,30.57,SE,143,0.0,-999.0,84,-99.99,,,0.01,weatherlink.com 1.10,2013-01-11 02:55:00,
2013-01-10 22:10:00,28.0,24.0,30.57,SE,143,0.0,-999.0,85,-99.99,,,0.01,weatherlink.com 1.10,2013-01-11 03:10:00,
2013-01-10 22:25:00,27.6,23.0,30.58,SE,143,0.0,-999.0,84,-99.99,,,0.01,weatherlink.com 1.10,2013-01-11 03:25:00,
2013-01-10 22:40:00,27.8,24.0,30.58,SE,143,0.0,-999.0,85,-99.99,,,0.01,weatherlink.com 1.10,2013-01-11 03:40:00,
2013-01-10 22:55:00,27.3,23.0,30.57,SE,143,0.0,-999.0,83,-99.99,,,0.01,weatherlink.com 1.10,2013-01-11 03:55:00,
2013-01-10 23:10:00,27.1,23.0,30.57,SE,143,0.0,-999.0,83,-99.99,,,0.01,weatherlink.com 1.10,2013-01-11 04:10:00,
2013-01-10 23:25:00,27.1,23.0,30.57,SE,143,0.0,-999.0,85,-99.99,,,0.01,weatherlink.com 1.10,2013-01-11 04:25:00,
2013-01-10 23:40:00,26.7,23.0,30.57,SE,143,0.0,-999.0,84,-99.99,,,0.01,weatherlink.com 1.10,2013-01-11 04:40:00,
2013-01-10 23:55:00,26.6,23.0,30.58,SE,143,0.0,-999.0,86,-99.99,,,0.01,weatherlink.com 1.10,2013-01-11 04:55:00,